createdAt,value
2022-12-29T00:01:56.191Z,93.44
2022-12-29T00:04:22.953Z,93.50
2022-12-29T00:06:49.458Z,92.93
2022-12-29T00:09:17.355Z,92.20
2022-12-29T00:11:43.834Z,92.37
2022-12-29T00:14:29.710Z,92.35
2022-12-29T00:16:56.036Z,91.73
2022-12-29T00:19:41.267Z,91.91
2022-12-29T00:22:29.099Z,91.79
2022-12-29T00:24:55.920Z,91.43
2022-12-29T00:27:40.747Z,91.53
2022-12-29T00:30:30.886Z,91.38
2022-12-29T00:33:15.608Z,91.57
2022-12-29T00:35:48.638Z,91.19
2022-12-29T00:38:33.730Z,91.01
2022-12-29T00:41:18.661Z,90.73
2022-12-29T00:44:03.515Z,90.73
2022-12-29T00:46:29.969Z,90.73
2022-12-29T00:49:15.120Z,90.84
2022-12-29T00:51:41.596Z,90.30
2022-12-29T00:54:08.151Z,90.27
2022-12-29T00:56:34.523Z,90.64
2022-12-29T00:59:02.594Z,89.89
2022-12-29T01:01:29.244Z,89.74
2022-12-29T01:04:01.884Z,89.50
2022-12-29T01:06:29.945Z,89.66
2022-12-29T01:09:15.072Z,90.16
2022-12-29T01:11:41.919Z,90.11
2022-12-29T01:14:08.720Z,90.08
2022-12-29T01:16:35.214Z,90.22
2022-12-29T01:19:01.584Z,90.48
2022-12-29T01:21:27.952Z,91.43
2022-12-29T01:23:54.400Z,91.94
2022-12-29T01:26:20.865Z,92.51
2022-12-29T01:28:47.803Z,93.68
2022-12-29T01:31:16.070Z,93.75
2022-12-29T01:33:43.515Z,94.38
2022-12-29T01:36:13.581Z,95.67
2022-12-29T01:38:42.083Z,96.29
2022-12-29T01:41:11.055Z,96.78
2022-12-29T01:43:43.584Z,96.92
2022-12-29T01:46:41.149Z,97.53
2022-12-29T01:49:19.415Z,97.52
2022-12-29T01:51:53.082Z,98.28
2022-12-29T01:54:31.079Z,98.32
2022-12-29T01:57:01.812Z,98.20
2022-12-29T01:59:32.951Z,98.29
2022-12-29T02:02:00.968Z,98.84
2022-12-29T02:04:29.798Z,98.74
2022-12-29T02:07:06.128Z,98.83
2022-12-29T02:09:33.712Z,98.71
2022-12-29T02:12:00.799Z,98.36
2022-12-29T02:14:27.184Z,98.39
2022-12-29T02:17:16.353Z,97.76
2022-12-29T02:19:59.761Z,97.92
2022-12-29T02:23:03.923Z,97.70
2022-12-29T02:25:39.396Z,97.57
2022-12-29T02:28:34.429Z,97.37
2022-12-29T02:31:10.137Z,97.48
2022-12-29T02:34:20.117Z,97.35
2022-12-29T02:37:09.212Z,97.30
2022-12-29T02:39:44.615Z,96.79
2022-12-29T02:42:37.069Z,96.76
2022-12-29T02:45:13.754Z,96.23
2022-12-29T02:47:55.641Z,95.87
2022-12-29T02:50:27.717Z,95.84
2022-12-29T02:53:00.690Z,95.36
2022-12-29T02:55:27.630Z,95.04
2022-12-29T02:58:20.433Z,94.38
2022-12-29T03:00:52.978Z,94.26
2022-12-29T03:03:37.698Z,93.91
2022-12-29T03:06:14.433Z,93.82
2022-12-29T03:09:18.392Z,93.66
2022-12-29T03:12:08.868Z,93.82
2022-12-29T03:15:23.377Z,94.03
2022-12-29T03:18:02.363Z,94.17
2022-12-29T03:20:42.938Z,94.25
2022-12-29T03:23:09.801Z,93.70
2022-12-29T03:25:49.451Z,93.29
2022-12-29T03:28:23.843Z,93.17
2022-12-29T03:30:50.388Z,93.49
2022-12-29T03:33:22.745Z,93.27
2022-12-29T03:35:52.937Z,93.68
2022-12-29T03:38:30.574Z,93.47
2022-12-29T03:41:00.870Z,93.59
2022-12-29T03:43:29.277Z,93.25
2022-12-29T03:45:55.863Z,93.79
2022-12-29T03:48:22.284Z,93.36
2022-12-29T03:50:48.668Z,93.39
2022-12-29T03:53:15.051Z,93.30
2022-12-29T03:55:41.412Z,93.30
2022-12-29T03:58:07.805Z,93.71
2022-12-29T04:00:34.252Z,93.54
2022-12-29T04:03:00.937Z,93.52
2022-12-29T04:05:27.687Z,93.47
2022-12-29T04:07:54.182Z,93.74
2022-12-29T04:10:20.667Z,93.79
2022-12-29T04:12:47.541Z,93.25
2022-12-29T04:15:14.098Z,93.63
2022-12-29T04:17:40.589Z,93.50
2022-12-29T04:20:26.128Z,93.02
2022-12-29T04:23:00.720Z,92.74
2022-12-29T04:25:27.401Z,93.06
2022-12-29T04:27:53.859Z,92.41
2022-12-29T04:30:20.297Z,92.19
2022-12-29T04:32:46.627Z,92.00
2022-12-29T04:35:13.050Z,91.76
2022-12-29T04:37:39.432Z,91.21
2022-12-29T04:40:06.513Z,91.04
2022-12-29T04:42:32.974Z,91.10
2022-12-29T04:44:59.318Z,90.76
2022-12-29T04:47:25.712Z,90.32
2022-12-29T04:49:52.079Z,90.08
2022-12-29T04:52:18.444Z,89.47
2022-12-29T04:54:44.940Z,89.36
2022-12-29T04:57:11.317Z,88.78
2022-12-29T04:59:37.731Z,88.73
2022-12-29T05:02:04.221Z,88.65
2022-12-29T05:04:30.627Z,88.57
2022-12-29T05:06:56.987Z,89.09
2022-12-29T05:09:24.807Z,88.77
2022-12-29T05:11:51.256Z,88.79
2022-12-29T05:14:17.696Z,88.83
2022-12-29T05:16:45.089Z,88.31
2022-12-29T05:19:11.541Z,88.46
2022-12-29T05:21:37.953Z,87.91
2022-12-29T05:24:04.708Z,88.16
2022-12-29T05:26:31.144Z,87.67
2022-12-29T05:28:57.658Z,87.01
2022-12-29T05:31:24.192Z,87.59
2022-12-29T05:33:50.609Z,87.36
2022-12-29T05:36:17.061Z,87.84
2022-12-29T05:38:45.068Z,87.36
2022-12-29T05:41:11.985Z,87.32
2022-12-29T05:43:38.471Z,87.23
2022-12-29T05:46:04.999Z,87.45
2022-12-29T05:48:37.517Z,87.37
2022-12-29T05:51:04.410Z,86.91
2022-12-29T05:53:30.837Z,86.77
2022-12-29T05:55:57.278Z,86.54
2022-12-29T05:58:23.677Z,86.55
2022-12-29T06:00:50.071Z,86.92
2022-12-29T06:03:16.451Z,86.66
2022-12-29T06:05:43.112Z,86.55
2022-12-29T06:08:09.423Z,86.39
2022-12-29T06:10:35.775Z,86.31
2022-12-29T06:13:02.127Z,86.16
2022-12-29T06:15:28.465Z,86.70
2022-12-29T06:17:54.893Z,87.02
2022-12-29T06:20:21.273Z,87.33
2022-12-29T06:22:47.704Z,87.43
2022-12-29T06:25:14.256Z,87.54
2022-12-29T06:27:40.627Z,87.21
2022-12-29T06:30:07.858Z,87.66
2022-12-29T06:32:34.286Z,87.67
2022-12-29T06:35:00.694Z,87.83
2022-12-29T06:37:27.353Z,88.71
2022-12-29T06:39:53.810Z,89.16
2022-12-29T06:42:20.318Z,89.09
2022-12-29T06:44:46.732Z,89.69
2022-12-29T06:47:13.142Z,89.78
2022-12-29T06:49:39.957Z,89.60
2022-12-29T06:52:12.422Z,90.08
2022-12-29T06:54:39.218Z,89.67
2022-12-29T06:57:05.562Z,88.73
2022-12-29T06:59:31.975Z,88.01
2022-12-29T07:01:58.521Z,88.06
2022-12-29T07:04:25.117Z,87.75
2022-12-29T07:06:51.649Z,86.97
2022-12-29T07:09:18.057Z,86.68
2022-12-29T07:11:44.426Z,86.38
2022-12-29T07:14:11.870Z,86.73
2022-12-29T07:16:38.572Z,87.37
2022-12-29T07:19:05.123Z,87.97
2022-12-29T07:21:31.718Z,88.04
2022-12-29T07:23:58.095Z,88.65
2022-12-29T07:26:25.163Z,89.34
2022-12-29T07:28:51.794Z,89.70
2022-12-29T07:31:20.840Z,89.85
2022-12-29T07:33:48.630Z,90.24
2022-12-29T07:36:16.717Z,90.82
2022-12-29T07:38:43.560Z,90.62
2022-12-29T07:41:10.309Z,90.80
2022-12-29T07:43:36.878Z,91.17
2022-12-29T07:46:03.382Z,91.45
2022-12-29T07:48:29.799Z,91.67
2022-12-29T07:50:56.165Z,91.73
2022-12-29T07:53:22.605Z,91.68
2022-12-29T07:55:48.979Z,91.55
2022-12-29T07:58:15.372Z,91.29
2022-12-29T08:00:41.798Z,90.98
2022-12-29T08:03:08.209Z,90.88
2022-12-29T08:05:35.201Z,90.41
2022-12-29T08:08:01.602Z,90.09
2022-12-29T08:10:28.143Z,89.66
2022-12-29T08:12:54.630Z,89.21
2022-12-29T08:15:22.550Z,88.57
2022-12-29T08:17:50.840Z,88.82
2022-12-29T08:20:17.345Z,88.32
2022-12-29T08:22:43.723Z,88.31
2022-12-29T08:25:10.118Z,87.60
2022-12-29T08:27:36.507Z,86.58
2022-12-29T08:30:03.588Z,86.05
2022-12-29T08:32:30.292Z,85.69
2022-12-29T08:34:56.779Z,84.97
2022-12-29T08:37:29.025Z,84.84
2022-12-29T08:39:58.751Z,84.43
2022-12-29T08:42:26.026Z,84.19
2022-12-29T08:44:52.361Z,84.34
2022-12-29T08:47:18.712Z,83.85
2022-12-29T08:49:45.171Z,83.47
2022-12-29T08:52:11.586Z,83.13
2022-12-29T08:54:37.925Z,83.79
2022-12-29T08:57:04.285Z,83.74
2022-12-29T08:59:30.719Z,83.96
2022-12-29T09:01:57.258Z,84.68
2022-12-29T09:04:24.705Z,84.95
2022-12-29T09:06:51.194Z,84.64
2022-12-29T09:09:18.032Z,83.92
2022-12-29T09:11:44.748Z,84.24
2022-12-29T09:14:11.338Z,84.41
2022-12-29T09:16:38.415Z,84.04
2022-12-29T09:19:05.035Z,84.32
2022-12-29T09:21:31.527Z,84.61
2022-12-29T09:23:57.992Z,85.04
2022-12-29T09:26:24.338Z,85.68
2022-12-29T09:28:50.796Z,85.63
2022-12-29T09:31:17.247Z,85.77
2022-12-29T09:33:43.627Z,86.18
2022-12-29T09:36:10.043Z,87.06
2022-12-29T09:38:37.213Z,87.86
2022-12-29T09:41:15.778Z,88.96
2022-12-29T09:44:01.749Z,89.41
2022-12-29T09:46:33.043Z,90.36
2022-12-29T09:49:14.517Z,91.34
2022-12-29T09:51:46.097Z,91.67
2022-12-29T09:54:37.891Z,92.42
2022-12-29T09:57:04.325Z,92.30
2022-12-29T09:59:42.600Z,93.25
2022-12-29T10:02:23.195Z,93.39
2022-12-29T10:04:49.656Z,93.58
2022-12-29T10:07:40.692Z,93.76
2022-12-29T10:10:39.331Z,94.37
2022-12-29T10:13:25.257Z,94.44
2022-12-29T10:16:17.767Z,94.33
2022-12-29T10:19:10.698Z,94.66
2022-12-29T10:21:56.232Z,94.96
2022-12-29T10:24:23.251Z,95.10
2022-12-29T10:26:52.898Z,95.24
2022-12-29T10:29:34.701Z,95.48
2022-12-29T10:32:05.722Z,95.80
2022-12-29T10:34:38.548Z,95.88
2022-12-29T10:37:42.492Z,95.54
2022-12-29T10:40:33.988Z,95.93
2022-12-29T10:43:01.770Z,95.82
2022-12-29T10:45:32.233Z,95.85
2022-12-29T10:48:04.724Z,96.05
2022-12-29T10:50:31.518Z,96.18
2022-12-29T10:53:05.728Z,96.30
2022-12-29T10:55:36.362Z,96.25
2022-12-29T10:58:07.016Z,95.75
2022-12-29T11:00:34.726Z,95.67
2022-12-29T11:03:34.668Z,95.43
2022-12-29T11:06:19.472Z,95.61
2022-12-29T11:09:41.991Z,95.84
2022-12-29T11:12:31.655Z,95.55
2022-12-29T11:15:16.832Z,95.46
2022-12-29T11:18:07.763Z,95.40
2022-12-29T11:20:39.887Z,95.31
2022-12-29T11:23:24.723Z,95.36
2022-12-29T11:26:25.330Z,95.44
2022-12-29T11:29:26.502Z,95.33
2022-12-29T11:31:56.183Z,94.88
2022-12-29T11:34:31.492Z,94.86
2022-12-29T11:37:20.861Z,93.93
2022-12-29T11:39:58.308Z,93.35
2022-12-29T11:42:33.373Z,92.86
2022-12-29T11:45:10.629Z,92.85
2022-12-29T11:47:37.630Z,92.67
2022-12-29T11:50:07.743Z,92.08
2022-12-29T11:52:38.836Z,92.24
2022-12-29T11:55:08.282Z,92.41
2022-12-29T11:57:36.235Z,91.82
2022-12-29T12:00:19.749Z,91.83
2022-12-29T12:02:59.687Z,91.69
2022-12-29T12:05:34.542Z,91.88
2022-12-29T12:08:21.364Z,91.12
2022-12-29T12:11:03.439Z,91.41
2022-12-29T12:13:40.092Z,91.36
2022-12-29T12:16:15.948Z,91.58
2022-12-29T12:18:58.144Z,91.84
2022-12-29T12:21:44.861Z,92.39
2022-12-29T12:24:36.997Z,92.85
2022-12-29T12:27:24.831Z,93.43
2022-12-29T12:30:06.092Z,93.79
2022-12-29T12:33:04.792Z,94.14
2022-12-29T12:35:34.157Z,94.18
2022-12-29T12:38:18.873Z,94.27
2022-12-29T12:41:01.725Z,94.09
2022-12-29T12:43:57.218Z,94.61
2022-12-29T12:46:47.525Z,94.16
2022-12-29T12:49:38.033Z,94.41
2022-12-29T12:52:23.266Z,94.56
2022-12-29T12:55:31.371Z,93.71
2022-12-29T12:58:09.037Z,93.47
2022-12-29T13:00:56.142Z,92.59
2022-12-29T13:04:00.707Z,92.44
2022-12-29T13:07:03.184Z,92.17
2022-12-29T13:09:35.588Z,91.43
2022-12-29T13:12:28.765Z,91.13
2022-12-29T13:15:02.848Z,91.13
2022-12-29T13:18:10.881Z,90.49
2022-12-29T13:20:43.554Z,90.64
2022-12-29T13:23:20.988Z,90.49
2022-12-29T13:26:24.744Z,90.51
2022-12-29T13:29:00.521Z,89.74
2022-12-29T13:31:51.653Z,89.97
2022-12-29T13:34:54.447Z,89.99
2022-12-29T13:37:27.169Z,90.10
2022-12-29T13:39:57.352Z,90.19
2022-12-29T13:42:25.340Z,90.12
2022-12-29T13:45:07.132Z,90.11
2022-12-29T13:47:40.805Z,89.58
2022-12-29T13:50:15.011Z,88.84
2022-12-29T13:52:50.496Z,89.05
2022-12-29T13:55:22.749Z,89.30
2022-12-29T13:58:09.308Z,88.94
2022-12-29T14:00:54.502Z,88.89
2022-12-29T14:03:33.159Z,89.17
2022-12-29T14:06:15.264Z,89.23
2022-12-29T14:08:41.998Z,89.13
2022-12-29T14:11:11.669Z,89.17
2022-12-29T14:13:44.861Z,89.08
2022-12-29T14:16:32.977Z,89.51
2022-12-29T14:19:15.715Z,89.85
2022-12-29T14:21:50.503Z,89.91
2022-12-29T14:24:38.623Z,89.96
2022-12-29T14:27:11.097Z,89.79
2022-12-29T14:29:40.393Z,90.07
2022-12-29T14:32:22.208Z,90.31
2022-12-29T14:34:52.633Z,89.87
2022-12-29T14:37:31.191Z,89.95
2022-12-29T14:40:23.892Z,90.08
2022-12-29T14:42:52.832Z,90.61
2022-12-29T14:45:19.670Z,91.32
2022-12-29T14:47:47.300Z,91.45
2022-12-29T14:50:23.965Z,92.11
2022-12-29T14:53:02.335Z,92.58
2022-12-29T14:55:47.362Z,92.69
2022-12-29T14:58:40.365Z,93.12
2022-12-29T15:01:19.007Z,93.11
2022-12-29T15:03:50.975Z,93.35
2022-12-29T15:06:22.954Z,93.74
2022-12-29T15:09:07.165Z,94.12
2022-12-29T15:11:49.503Z,94.12
2022-12-29T15:14:33.632Z,94.47
2022-12-29T15:17:01.507Z,94.74
2022-12-29T15:19:29.038Z,94.80
2022-12-29T15:21:57.483Z,94.81
2022-12-29T15:24:24.691Z,94.69
2022-12-29T15:26:53.834Z,94.58
2022-12-29T15:29:37.025Z,94.66
2022-12-29T15:32:16.578Z,94.50
2022-12-29T15:34:44.199Z,94.89
2022-12-29T15:37:10.733Z,94.54
2022-12-29T15:39:37.133Z,94.54
2022-12-29T15:42:22.231Z,94.13
2022-12-29T15:44:54.195Z,93.87
2022-12-29T15:47:29.618Z,93.63
2022-12-29T15:50:10.043Z,93.27
2022-12-29T15:52:40.618Z,92.75
2022-12-29T15:55:17.299Z,92.88
2022-12-29T15:57:44.470Z,92.40
2022-12-29T16:00:29.093Z,92.54
2022-12-29T16:02:58.126Z,92.20
2022-12-29T16:05:25.067Z,92.11
2022-12-29T16:08:00.109Z,92.06
2022-12-29T16:10:37.734Z,91.99
2022-12-29T16:13:20.963Z,91.80
2022-12-29T16:15:48.576Z,91.60
2022-12-29T16:18:45.038Z,91.59
2022-12-29T16:21:25.477Z,91.62
2022-12-29T16:23:55.843Z,91.52
2022-12-29T16:26:24.783Z,91.50
2022-12-29T16:28:56.651Z,91.40
2022-12-29T16:31:38.053Z,91.51
2022-12-29T16:34:24.519Z,91.30
2022-12-29T16:36:56.752Z,91.05
2022-12-29T16:39:40.513Z,91.16
2022-12-29T16:42:50.570Z,90.42
2022-12-29T16:45:21.075Z,90.01
2022-12-29T16:48:05.837Z,90.05
2022-12-29T16:50:33.846Z,89.63
2022-12-29T16:53:01.126Z,89.68
2022-12-29T16:55:27.590Z,88.94
2022-12-29T16:57:57.257Z,88.93
2022-12-29T17:00:26.526Z,89.07
2022-12-29T17:02:57.328Z,88.78
2022-12-29T17:05:24.083Z,88.80
2022-12-29T17:07:52.037Z,88.83
2022-12-29T17:10:18.399Z,88.80
2022-12-29T17:12:47.948Z,88.88
2022-12-29T17:15:25.541Z,88.74
2022-12-29T17:17:55.155Z,88.86
2022-12-29T17:20:30.476Z,88.98
2022-12-29T17:22:58.590Z,89.32
2022-12-29T17:25:32.496Z,89.08
2022-12-29T17:28:05.314Z,89.45
2022-12-29T17:30:34.655Z,89.06
2022-12-29T17:33:08.810Z,88.90
2022-12-29T17:35:35.312Z,88.77
2022-12-29T17:38:01.701Z,88.75
2022-12-29T17:40:30.128Z,89.01
2022-12-29T17:42:58.510Z,88.90
2022-12-29T17:45:27.838Z,88.57
2022-12-29T17:47:55.023Z,88.88
2022-12-29T17:50:24.838Z,88.58
2022-12-29T17:53:01.023Z,88.23
2022-12-29T17:55:34.609Z,88.60
2022-12-29T17:58:21.729Z,88.46
2022-12-29T18:00:50.065Z,88.58
2022-12-29T18:03:29.149Z,88.72
2022-12-29T18:05:56.098Z,88.85
2022-12-29T18:08:22.449Z,88.60
2022-12-29T18:10:50.838Z,88.78
2022-12-29T18:13:23.056Z,88.11
2022-12-29T18:15:50.330Z,87.69
2022-12-29T18:18:22.361Z,87.64
2022-12-29T18:20:50.664Z,87.85
2022-12-29T18:23:23.271Z,87.85
2022-12-29T18:26:00.332Z,88.00
2022-12-29T18:28:27.908Z,87.88
2022-12-29T18:30:56.907Z,87.84
2022-12-29T18:33:26.256Z,87.50
2022-12-29T18:35:58.800Z,87.80
2022-12-29T18:38:25.430Z,87.73
2022-12-29T18:40:52.711Z,88.01
2022-12-29T18:43:20.329Z,87.91
2022-12-29T18:45:47.145Z,87.83
2022-12-29T18:48:14.514Z,87.76
2022-12-29T18:50:41.238Z,87.81
2022-12-29T18:53:16.780Z,87.98
2022-12-29T18:55:43.225Z,88.01
2022-12-29T18:58:10.829Z,87.98
2022-12-29T19:00:37.768Z,88.01
2022-12-29T19:03:04.383Z,88.35
2022-12-29T19:05:37.043Z,88.42
2022-12-29T19:08:04.209Z,88.36
2022-12-29T19:10:30.765Z,88.49
2022-12-29T19:12:57.161Z,88.61
2022-12-29T19:15:30.592Z,88.60
2022-12-29T19:18:41.927Z,88.89
2022-12-29T19:20:47.533Z,88.76
2022-12-29T19:23:16.947Z,88.67
2022-12-29T19:25:44.547Z,88.69
2022-12-29T19:28:25.609Z,88.69
2022-12-29T19:30:56.056Z,88.58
2022-12-29T19:33:23.770Z,88.57
2022-12-29T19:35:51.869Z,88.74
2022-12-29T19:38:19.219Z,88.70
2022-12-29T19:40:50.820Z,88.69
2022-12-29T19:43:18.220Z,88.55
2022-12-29T19:45:45.270Z,88.43
2022-12-29T19:48:14.733Z,88.63
2022-12-29T19:50:41.477Z,88.93
2022-12-29T19:53:07.913Z,88.98
2022-12-29T19:55:34.251Z,88.62
2022-12-29T19:58:00.726Z,88.64
2022-12-29T20:00:27.418Z,88.87
2022-12-29T20:02:54.031Z,88.99
2022-12-29T20:05:20.705Z,88.77
2022-12-29T20:07:47.148Z,88.75
2022-12-29T20:10:13.539Z,88.75
2022-12-29T20:12:40.027Z,88.86
2022-12-29T20:15:08.206Z,89.25
2022-12-29T20:18:10.872Z,89.25
2022-12-29T20:20:21.628Z,89.16
2022-12-29T20:22:48.049Z,89.22
2022-12-29T20:28:00.763Z,89.43
2022-12-29T20:30:27.213Z,89.62
2022-12-29T20:32:53.609Z,89.71
2022-12-29T20:35:20.117Z,89.70
2022-12-29T20:37:46.523Z,89.64
2022-12-29T20:40:13.019Z,89.76
2022-12-29T20:42:39.532Z,89.41
2022-12-29T20:45:06.224Z,89.63
2022-12-29T20:47:32.602Z,89.68
2022-12-29T20:49:59.194Z,89.75
2022-12-29T20:52:25.587Z,89.69
2022-12-29T20:54:52.127Z,89.77
2022-12-29T20:57:18.537Z,89.61
2022-12-29T20:59:44.991Z,89.63
2022-12-29T21:02:22.557Z,89.15
2022-12-29T21:07:35.447Z,89.05
2022-12-29T21:10:01.816Z,88.87
2022-12-29T21:12:28.190Z,89.04
2022-12-29T21:14:54.547Z,88.67
2022-12-29T21:17:20.951Z,88.86
2022-12-29T21:19:47.486Z,88.60
2022-12-29T21:22:13.878Z,88.58
2022-12-29T21:24:40.400Z,88.62
2022-12-29T21:27:06.825Z,88.41
2022-12-29T21:29:33.228Z,88.42
2022-12-29T21:32:06.411Z,88.40
2022-12-29T21:34:34.387Z,88.26
2022-12-29T21:37:00.805Z,88.38
2022-12-29T21:39:27.626Z,88.45
2022-12-29T21:41:59.723Z,88.46
2022-12-29T21:44:45.231Z,88.74
2022-12-29T21:47:11.654Z,88.58
2022-12-29T21:49:38.097Z,88.83
2022-12-29T21:52:04.645Z,88.88
2022-12-29T21:54:49.932Z,89.07
2022-12-29T21:57:36.754Z,88.92
2022-12-29T22:00:27.127Z,88.89
2022-12-29T22:03:20.409Z,89.23
2022-12-29T22:06:08.828Z,89.17
2022-12-29T22:08:53.667Z,89.12
2022-12-29T22:11:38.784Z,89.38
2022-12-29T22:14:06.292Z,89.27
2022-12-29T22:16:32.893Z,89.21
2022-12-29T22:18:59.434Z,89.45
2022-12-29T22:21:25.810Z,89.48
2022-12-29T22:23:52.156Z,89.46
2022-12-29T22:26:18.614Z,89.46
2022-12-29T22:28:46.221Z,89.92
2022-12-29T22:31:27.087Z,89.71
2022-12-29T22:33:58.124Z,90.13
2022-12-29T22:36:25.459Z,89.78
2022-12-29T22:38:52.426Z,89.79
2022-12-29T22:41:19.603Z,90.37
2022-12-29T22:43:46.041Z,90.18
2022-12-29T22:46:12.518Z,89.96
2022-12-29T22:48:39.094Z,89.88
2022-12-29T22:51:06.027Z,90.27
2022-12-29T22:53:32.927Z,90.37
2022-12-29T22:56:11.221Z,90.52
2022-12-29T22:58:42.982Z,90.18
2022-12-29T23:01:09.974Z,90.47
2022-12-29T23:03:37.134Z,90.51
2022-12-29T23:06:07.605Z,90.67
2022-12-29T23:08:36.780Z,90.69
2022-12-29T23:11:04.599Z,90.82
2022-12-29T23:13:31.399Z,90.96
2022-12-29T23:15:57.914Z,90.86
2022-12-29T23:18:24.600Z,90.80
2022-12-29T23:20:50.970Z,91.10
2022-12-29T23:23:44.651Z,91.56
2022-12-29T23:26:14.814Z,91.52
2022-12-29T23:28:42.424Z,91.35
2022-12-29T23:31:08.931Z,91.18
2022-12-29T23:33:35.476Z,91.34
2022-12-29T23:36:01.905Z,91.38
2022-12-29T23:38:28.264Z,91.53
2022-12-29T23:40:54.664Z,91.64
2022-12-29T23:43:21.158Z,91.85
2022-12-29T23:45:51.019Z,92.06
2022-12-29T23:48:18.400Z,92.09
2022-12-29T23:50:45.529Z,92.09
2022-12-29T23:53:12.649Z,91.46
2022-12-29T23:55:42.027Z,91.76
2022-12-29T23:58:08.698Z,91.88
